Time;durP1;ratioP1;P1;durP2;ratioP2;P2;SDS_P1;SDS_P2;PMS_P1;PMS_P2;Temp;Humidity;BMP_temperature;BMP_pressure;BME280_temperature;BME280_humidity;BME280_pressure;Samples;Min_cycle;Max_cycle;Signal;HPM_P1;HPM_P2
2021/11/12 00:14:28;;;;;;;45.50;27.73;;;;;;;7.66;100.00;102071.97;4939228;29;20032;-68
2021/11/12 00:17:15;;;;;;;37.80;23.67;;;;;;;7.94;100.00;102061.09;4940146;29;20078;-70
2021/11/12 00:20:02;;;;;;;35.97;22.13;;;;;;;7.53;100.00;102064.81;4939417;29;20068;-69
2021/11/12 00:22:49;;;;;;;31.88;20.08;;;;;;;7.15;100.00;102065.88;4938156;29;20370;-70
2021/11/12 00:25:35;;;;;;;32.67;19.10;;;;;;;6.75;100.00;102063.41;4926413;29;20126;-68
2021/11/12 00:28:24;;;;;;;29.65;19.05;;;;;;;7.12;100.00;102068.44;4938330;29;20031;-68
2021/11/12 00:31:28;;;;;;;29.73;17.70;;;;;;;6.79;100.00;102060.84;4938295;29;20106;-69
2021/11/12 00:39:58;;;;;;;22.38;14.30;;;;;;;6.06;100.00;102052.41;4938168;29;20030;-67
2021/11/12 00:43:04;;;;;;;24.25;14.02;;;;;;;6.18;100.00;102049.19;4939445;29;20027;-68
2021/11/12 00:45:56;;;;;;;22.95;13.07;;;;;;;6.27;100.00;102047.63;4938958;29;20027;-68
2021/11/12 00:51:43;;;;;;;19.88;12.25;;;;;;;6.41;100.00;102035.81;4938404;29;20067;-69
2021/11/12 00:54:29;;;;;;;19.15;12.20;;;;;;;6.47;100.00;102032.47;4938828;29;20497;-68
2021/11/12 00:57:15;;;;;;;21.00;13.10;;;;;;;6.48;100.00;102035.09;4937647;29;20055;-67
2021/11/12 01:00:06;;;;;;;20.10;12.63;;;;;;;6.30;100.00;102032.09;4939501;29;20039;-67
2021/11/12 01:02:53;;;;;;;23.73;13.73;;;;;;;6.64;100.00;102024.13;4938189;29;20028;-69
2021/11/12 01:05:39;;;;;;;23.42;13.50;;;;;;;6.62;100.00;102025.81;4925165;29;20039;-68
2021/11/12 01:08:27;;;;;;;20.48;12.65;;;;;;;6.47;100.00;102024.66;4939012;29;20035;-69
2021/11/12 01:11:15;;;;;;;21.33;13.40;;;;;;;5.90;100.00;102018.22;4925475;29;20043;-68
2021/11/12 01:14:01;;;;;;;19.17;12.27;;;;;;;6.15;100.00;102017.91;4937682;29;20083;-69
2021/11/12 01:16:48;;;;;;;22.80;14.50;;;;;;;5.86;100.00;102009.47;4937423;29;20347;-68
2021/11/12 01:19:34;;;;;;;23.02;13.85;;;;;;;6.47;100.00;102014.22;4937735;29;20035;-68
2021/11/12 01:22:21;;;;;;;22.42;13.52;;;;;;;6.39;100.00;102015.81;4937375;29;20485;-68
2021/11/12 01:25:10;;;;;;;23.17;13.65;;;;;;;6.62;100.00;102011.91;4936815;29;20028;-68
2021/11/12 01:27:56;;;;;;;20.33;13.38;;;;;;;6.64;100.00;102012.81;4924920;29;20046;-68
2021/11/12 01:30:42;;;;;;;19.40;12.77;;;;;;;6.78;100.00;102012.22;4936889;29;20043;-68
2021/11/12 01:33:29;;;;;;;22.58;13.55;;;;;;;6.76;100.00;102007.84;4938268;29;20027;-68
2021/11/12 01:36:35;;;;;;;19.70;12.30;;;;;;;6.91;100.00;102008.13;4938316;29;20086;-68
2021/11/12 01:39:22;;;;;;;21.80;12.32;;;;;;;7.08;100.00;102004.94;4937502;29;20063;-68
2021/11/12 01:42:08;;;;;;;19.40;12.38;;;;;;;6.85;100.00;102002.78;4938721;29;20034;-68
2021/11/12 01:45:06;;;;;;;17.85;12.05;;;;;;;7.23;100.00;102005.19;4938489;29;20109;-69
2021/11/12 01:48:13;;;;;;;20.25;11.27;;;;;;;6.86;100.00;101999.31;4938125;29;20028;-68
2021/11/12 01:51:24;;;;;;;16.80;10.68;;;;;;;6.89;100.00;101995.06;4938298;29;20032;-68
2021/11/12 01:59:37;;;;;;;14.50;9.82;;;;;;;6.92;100.00;101983.81;4939139;29;20035;-68
2021/11/12 02:02:25;;;;;;;16.10;10.25;;;;;;;6.57;100.00;101990.13;4924382;29;20363;-68
2021/11/12 02:05:14;;;;;;;15.60;10.20;;;;;;;6.13;100.00;101989.25;4938434;29;20047;-69
2021/11/12 02:08:00;;;;;;;20.27;11.15;;;;;;;6.57;100.00;101988.41;4938020;29;20043;-69
2021/11/12 02:10:46;;;;;;;17.83;10.63;;;;;;;6.83;100.00;101988.88;4937703;29;20032;-68
2021/11/12 02:13:35;;;;;;;16.77;10.93;;;;;;;6.77;100.00;101993.97;4923931;29;20031;-69
2021/11/12 02:16:27;;;;;;;17.33;11.07;;;;;;;6.91;100.00;101984.69;4937799;29;20035;-68
2021/11/12 02:19:14;;;;;;;20.92;11.40;;;;;;;6.87;100.00;101990.69;4937826;29;20110;-68
2021/11/12 02:22:08;;;;;;;16.33;10.65;;;;;;;6.85;100.00;101995.88;4937360;29;20102;-68
2021/11/12 02:25:02;;;;;;;22.08;12.43;;;;;;;6.67;100.00;101992.06;4937923;29;20046;-68
2021/11/12 02:28:05;;;;;;;26.25;13.15;;;;;;;6.58;100.00;101995.34;4937302;29;20023;-68
2021/11/12 02:30:53;;;;;;;24.35;13.00;;;;;;;6.30;100.00;101992.19;4937747;29;20035;-69
2021/11/12 02:33:39;;;;;;;23.88;12.70;;;;;;;6.65;100.00;101997.22;4937755;29;20114;-69
2021/11/12 02:36:24;;;;;;;19.63;12.50;;;;;;;6.21;100.00;101989.38;4937379;29;20027;-68
2021/11/12 02:39:13;;;;;;;16.48;10.88;;;;;;;6.06;100.00;101995.16;4937097;29;20039;-68
2021/11/12 02:41:59;;;;;;;19.27;11.02;;;;;;;6.00;100.00;101989.84;4937485;29;20024;-69
2021/11/12 02:44:45;;;;;;;21.33;12.55;;;;;;;5.87;100.00;101995.59;4937076;29;20505;-69
2021/11/12 02:47:30;;;;;;;18.23;11.10;;;;;;;5.76;100.00;101983.19;4937699;29;20123;-68
2021/11/12 02:50:18;;;;;;;17.05;10.90;;;;;;;6.10;100.00;101985.72;4936935;29;20529;-67
2021/11/12 02:53:09;;;;;;;20.02;11.65;;;;;;;5.83;100.00;101983.38;4936192;29;20039;-68
2021/11/12 02:56:00;;;;;;;18.25;10.70;;;;;;;5.82;100.00;101984.22;4922661;29;20456;-68
2021/11/12 02:58:50;;;;;;;19.15;11.73;;;;;;;5.38;100.00;101984.06;4937604;29;20477;-68
2021/11/12 03:01:44;;;;;;;19.90;11.25;;;;;;;5.44;100.00;101985.06;4922754;29;20035;-68
2021/11/12 03:04:30;;;;;;;17.08;10.02;;;;;;;4.98;100.00;101985.66;4935711;29;20106;-68
2021/11/12 03:07:17;;;;;;;17.42;10.88;;;;;;;5.21;100.00;101987.13;4935942;29;20035;-68
2021/11/12 03:10:04;;;;;;;16.40;10.45;;;;;;;5.24;100.00;101983.72;4931547;29;20035;-68
2021/11/12 03:12:51;;;;;;;15.27;10.52;;;;;;;5.38;100.00;101984.91;4922051;29;20024;-68
2021/11/12 03:15:37;;;;;;;18.98;11.40;;;;;;;5.46;100.00;101983.38;4935691;29;20079;-67
2021/11/12 03:18:23;;;;;;;21.10;11.57;;;;;;;5.60;100.00;101981.09;4937607;29;20560;-67
2021/11/12 03:21:13;;;;;;;16.65;11.45;;;;;;;5.77;100.00;101972.81;4936190;29;20031;-68
2021/11/12 03:24:04;;;;;;;17.80;11.82;;;;;;;5.73;100.00;101976.19;4923656;29;20028;-68
2021/11/12 04:00:56;;;;;;;24.45;15.57;;;;;;;5.91;100.00;101953.22;4935992;29;20020;-68
2021/11/12 04:21:46;;;;;;;25.98;15.20;;;;;;;6.04;100.00;101949.16;4925219;29;20046;-68
2021/11/12 05:43:50;;;;;;;41.53;24.75;;;;;;;5.85;100.00;101989.50;4937634;29;20106;-68
2021/11/12 05:50:03;;;;;;;42.90;23.77;;;;;;;5.25;100.00;101995.84;4939089;29;20039;-69
2021/11/12 05:55:54;;;;;;;44.05;25.75;;;;;;;5.29;100.00;101995.09;4937220;29;20036;-68
2021/11/12 05:58:40;;;;;;;40.00;25.20;;;;;;;5.22;100.00;102000.97;4938174;29;20066;-68
2021/11/12 06:01:26;;;;;;;40.17;24.85;;;;;;;5.48;100.00;101997.28;4924149;29;20106;-68
2021/11/12 06:04:12;;;;;;;49.20;27.00;;;;;;;5.72;100.00;102000.44;4922504;29;20038;-69
2021/11/12 06:06:58;;;;;;;50.88;29.27;;;;;;;5.91;100.00;102001.78;4937138;29;20042;-68
2021/11/12 06:09:44;;;;;;;49.45;27.75;;;;;;;5.55;100.00;102006.09;4923610;29;20179;-68
2021/11/12 06:12:29;;;;;;;52.63;29.02;;;;;;;5.81;100.00;102005.88;4937363;29;20063;-69
2021/11/12 06:15:16;;;;;;;45.58;26.63;;;;;;;6.32;100.00;102006.09;4936376;29;20031;-68
2021/11/12 06:18:02;;;;;;;49.97;28.80;;;;;;;6.29;100.00;101993.03;4936968;29;20446;-69
2021/11/12 06:20:48;;;;;;;53.28;28.20;;;;;;;6.22;100.00;101992.03;4923538;29;20087;-69
2021/11/12 06:23:34;;;;;;;46.85;27.58;;;;;;;6.50;100.00;101999.53;4936156;29;20031;-68
2021/11/12 06:26:21;;;;;;;46.03;28.02;;;;;;;6.41;100.00;101994.16;4935440;29;20043;-68
2021/11/12 06:29:08;;;;;;;60.22;29.90;;;;;;;6.01;100.00;101996.78;4922950;29;20036;-68
2021/11/12 06:31:54;;;;;;;60.45;34.22;;;;;;;6.25;100.00;101999.00;4922938;29;20084;-69
2021/11/12 06:34:42;;;;;;;58.78;33.60;;;;;;;6.27;100.00;101997.34;4936304;29;20031;-69
2021/11/12 06:37:28;;;;;;;71.68;34.03;;;;;;;6.10;100.00;102001.31;4924161;29;20028;-69
2021/11/12 06:40:21;;;;;;;64.85;35.10;;;;;;;5.79;100.00;101999.72;4922263;29;20122;-69
2021/11/12 06:43:20;;;;;;;62.03;34.63;;;;;;;6.19;100.00;101998.91;4922800;29;20059;-69
2021/11/12 06:49:19;;;;;;;55.35;33.28;;;;;;;6.81;100.00;101993.16;4937580;29;20064;-68
2021/11/12 06:52:06;;;;;;;55.10;30.05;;;;;;;6.80;100.00;101992.31;4923457;29;20489;-68
2021/11/12 06:54:52;;;;;;;51.10;30.73;;;;;;;7.19;100.00;101979.09;4921875;29;20131;-69
2021/11/12 06:57:39;;;;;;;51.75;31.23;;;;;;;6.62;100.00;101988.47;4922015;29;20058;-68
2021/11/12 07:00:24;;;;;;;49.85;31.30;;;;;;;7.26;100.00;101980.91;4923158;29;20042;-68
2021/11/12 07:03:10;;;;;;;54.72;31.40;;;;;;;6.32;100.00;101983.56;4921447;29;20047;-68
2021/11/12 07:05:56;;;;;;;51.50;32.40;;;;;;;6.68;100.00;101984.28;4923407;29;20023;-69
2021/11/12 07:08:43;;;;;;;48.92;31.60;;;;;;;6.41;100.00;101985.47;4935405;29;20370;-68
2021/11/12 07:11:29;;;;;;;52.40;30.48;;;;;;;6.61;100.00;101985.00;4936028;29;20032;-69
2021/11/12 07:14:15;;;;;;;48.85;29.30;;;;;;;6.97;100.00;101983.06;4921833;29;20038;-68
2021/11/12 07:17:02;;;;;;;48.40;29.23;;;;;;;6.73;100.00;101992.16;4923531;29;20028;-68
2021/11/12 07:19:48;;;;;;;43.08;26.77;;;;;;;6.78;100.00;101991.38;4935885;29;20179;-69
2021/11/12 07:22:35;;;;;;;45.95;26.25;;;;;;;7.05;100.00;101991.00;4936729;29;20082;-69
2021/11/12 07:25:21;;;;;;;41.70;26.52;;;;;;;7.14;100.00;101988.53;4935803;29;20126;-68
2021/11/12 07:28:08;;;;;;;46.53;26.83;;;;;;;7.35;100.00;101987.16;4936594;29;20031;-70
2021/11/12 07:30:55;;;;;;;43.05;26.98;;;;;;;7.49;100.00;101982.16;4922404;29;20034;-70
2021/11/12 07:33:42;;;;;;;44.00;27.38;;;;;;;8.04;100.00;101985.53;4935352;29;20023;-69
2021/11/12 07:36:36;;;;;;;45.22;28.85;;;;;;;7.37;100.00;101980.25;4922737;29;20028;-68
2021/11/12 07:45:18;;;;;;;45.40;29.27;;;;;;;8.05;100.00;101987.31;4940766;29;20111;-70
2021/11/12 07:48:04;;;;;;;48.92;29.67;;;;;;;8.63;100.00;101988.88;4927200;29;20024;-69
2021/11/12 07:50:50;;;;;;;49.90;29.52;;;;;;;8.34;100.00;101987.69;4938913;29;20027;-69
2021/11/12 07:53:36;;;;;;;47.75;29.45;;;;;;;8.80;100.00;101989.97;4940209;29;20042;-70
2021/11/12 07:56:22;;;;;;;44.25;28.48;;;;;;;9.18;100.00;101986.84;4939687;29;20023;-69
2021/11/12 07:59:08;;;;;;;43.17;27.60;;;;;;;9.71;100.00;101982.88;4925331;29;20189;-69
2021/11/12 08:01:55;;;;;;;39.83;25.73;;;;;;;9.91;100.00;101985.59;4927312;29;20039;-70
2021/11/12 08:04:42;;;;;;;42.13;26.58;;;;;;;9.91;100.00;101986.47;4928171;29;20474;-70
2021/11/12 08:07:31;;;;;;;48.35;28.27;;;;;;;9.83;100.00;101982.03;4926142;29;20063;-70
2021/11/12 08:10:20;;;;;;;38.60;25.98;;;;;;;10.23;100.00;101986.66;4938330;29;20031;-70
2021/11/12 08:13:55;;;;;;;46.78;29.90;;;;;;;9.46;100.00;101977.44;4938068;29;20050;-70
2021/11/12 08:25:30;;;;;;;39.95;26.70;;;;;;;10.04;100.00;101987.38;4920532;29;20039;-69
2021/11/12 08:28:37;;;;;;;45.70;28.58;;;;;;;10.19;100.00;101987.50;4939382;29;20063;-69
2021/11/12 08:34:16;;;;;;;45.72;29.60;;;;;;;10.34;100.00;101979.72;4938681;29;20365;-69
2021/11/12 08:40:40;;;;;;;47.88;31.77;;;;;;;10.10;100.00;101977.00;4939660;29;20058;-70
2021/11/12 08:43:04;;;;;;;46.92;31.92;;;;;;;10.17;100.00;101978.78;4938717;29;20027;-70
2021/11/12 08:48:53;;;;;;;46.90;31.65;;;;;;;9.83;100.00;101966.34;4938802;29;20458;-68
2021/11/12 08:51:41;;;;;;;45.40;30.33;;;;;;;9.53;100.00;101971.41;4938953;29;20110;-70
2021/11/12 08:54:30;;;;;;;46.00;29.02;;;;;;;9.70;100.00;101969.75;4939429;29;20028;-69
2021/11/12 08:57:17;;;;;;;46.72;30.70;;;;;;;10.05;100.00;101971.72;4937462;29;20051;-70
2021/11/12 09:00:06;;;;;;;46.70;30.98;;;;;;;10.06;100.00;101975.22;4925464;29;20370;-70
2021/11/12 09:02:53;;;;;;;47.60;30.50;;;;;;;9.67;100.00;101974.97;4937620;29;20115;-69
2021/11/12 09:05:39;;;;;;;48.92;32.08;;;;;;;10.22;100.00;101971.81;4937860;29;20098;-69
2021/11/12 09:08:25;;;;;;;44.95;30.77;;;;;;;9.83;100.00;101962.00;4937760;29;20027;-68
2021/11/12 09:11:12;;;;;;;50.67;32.28;;;;;;;10.32;100.00;101959.63;4938920;29;20426;-70
2021/11/12 09:14:05;;;;;;;53.55;34.90;;;;;;;9.92;100.00;101966.38;4937265;29;20523;-70
2021/11/12 09:16:51;;;;;;;49.28;32.53;;;;;;;10.49;100.00;101966.63;4937583;29;20118;-69
2021/11/12 09:19:45;;;;;;;52.70;33.67;;;;;;;10.43;100.00;101966.63;4936702;29;20031;-69
2021/11/12 09:22:32;;;;;;;57.47;33.63;;;;;;;10.71;100.00;101957.97;4936891;29;20039;-70
2021/11/12 09:25:18;;;;;;;48.63;32.63;;;;;;;10.40;100.00;101966.63;4938453;29;20047;-69
2021/11/12 09:28:04;;;;;;;51.30;35.45;;;;;;;10.77;100.00;101951.88;4937214;29;20106;-69
2021/11/12 09:30:50;;;;;;;51.47;34.00;;;;;;;9.75;100.00;101939.25;4939072;29;20035;-69
2021/11/12 09:33:37;;;;;;;50.47;33.22;;;;;;;9.97;100.00;101935.88;4938196;29;20468;-71
2021/11/12 09:36:26;;;;;;;50.35;33.38;;;;;;;10.53;100.00;101938.72;4937338;29;20039;-69
2021/11/12 09:39:12;;;;;;;48.78;31.85;;;;;;;10.86;100.00;101934.41;4937139;29;20220;-70
2021/11/12 09:41:59;;;;;;;54.65;35.10;;;;;;;10.71;100.00;101936.09;4938363;29;20103;-70
2021/11/12 09:44:46;;;;;;;51.95;34.00;;;;;;;10.37;100.00;101923.81;4937770;29;20069;-70
2021/11/12 09:47:32;;;;;;;53.45;34.55;;;;;;;10.35;100.00;101930.78;4936485;29;20129;-70
2021/11/12 09:50:23;;;;;;;47.08;32.72;;;;;;;10.10;100.00;101927.25;4936519;29;20031;-70
2021/11/12 09:53:08;;;;;;;54.83;34.78;;;;;;;10.43;100.00;101931.69;4938230;29;20103;-70
2021/11/12 09:55:55;;;;;;;54.22;35.50;;;;;;;10.66;100.00;101919.50;4924106;29;20043;-71
2021/11/12 09:58:47;;;;;;;53.35;34.65;;;;;;;10.95;100.00;101916.03;4923869;29;20152;-71
2021/11/12 10:01:36;;;;;;;50.85;34.67;;;;;;;10.98;100.00;101904.69;4923652;29;20042;-70
2021/11/12 10:04:22;;;;;;;50.88;34.08;;;;;;;10.59;100.00;101912.50;4923291;29;20133;-70
2021/11/12 10:07:10;;;;;;;52.03;33.80;;;;;;;10.59;100.00;101908.16;4937003;29;20446;-70
2021/11/12 10:10:11;;;;;;;50.95;33.78;;;;;;;11.38;100.00;101896.78;4923625;29;20031;-70
2021/11/12 10:12:58;;;;;;;51.33;32.75;;;;;;;11.46;100.00;101895.00;4924168;29;20063;-69
2021/11/12 10:15:52;;;;;;;49.72;31.88;;;;;;;11.90;100.00;101900.13;4937406;29;20114;-70
2021/11/12 10:19:03;;;;;;;52.05;33.90;;;;;;;11.89;100.00;101896.63;4923141;29;20032;-70
2021/11/12 10:22:03;;;;;;;53.95;34.42;;;;;;;11.50;100.00;101893.22;4936306;29;20078;-70
2021/11/12 10:24:49;;;;;;;50.17;33.53;;;;;;;12.19;100.00;101885.09;4937456;29;20114;-71
2021/11/12 10:27:37;;;;;;;49.67;33.45;;;;;;;12.46;100.00;101891.06;4922997;29;20046;-70
2021/11/12 10:30:25;;;;;;;49.60;33.83;;;;;;;12.25;100.00;101879.81;4935787;29;20035;-69
2021/11/12 10:33:11;;;;;;;47.13;32.55;;;;;;;11.22;100.00;101881.94;4922465;29;20043;-69
2021/11/12 10:35:57;;;;;;;47.97;32.15;;;;;;;12.42;100.00;101878.81;4936643;29;20035;-70
2021/11/12 10:38:44;;;;;;;44.83;31.27;;;;;;;12.58;100.00;101872.56;4937054;29;20058;-69
2021/11/12 10:41:36;;;;;;;48.17;32.50;;;;;;;12.79;100.00;101868.91;4936851;29;20059;-70
2021/11/12 10:44:22;;;;;;;49.35;33.88;;;;;;;12.61;100.00;101858.53;4935883;29;20036;-70
2021/11/12 10:47:09;;;;;;;48.80;32.53;;;;;;;12.70;100.00;101854.06;4937180;29;20031;-70
2021/11/12 10:50:08;;;;;;;48.00;31.88;;;;;;;12.92;100.00;101858.28;4923331;29;20150;-71
2021/11/12 10:53:00;;;;;;;50.63;32.72;;;;;;;13.14;100.00;101851.94;4936377;29;20048;-70
2021/11/12 10:55:56;;;;;;;46.42;32.53;;;;;;;12.50;100.00;101848.09;4935986;29;20024;-69
2021/11/12 10:59:17;;;;;;;46.72;31.63;;;;;;;12.55;100.00;101841.06;4936387;29;20043;-69
2021/11/12 11:02:04;;;;;;;45.30;31.52;;;;;;;12.95;100.00;101839.81;4859558;29;20484;-70
2021/11/12 11:04:50;;;;;;;45.95;32.25;;;;;;;12.95;100.00;101842.44;4936671;29;20031;-70
2021/11/12 11:07:36;;;;;;;42.20;30.10;;;;;;;13.18;100.00;101843.13;4923773;29;20061;-69
2021/11/12 11:10:28;;;;;;;41.58;29.17;;;;;;;13.76;100.00;101841.59;4935198;29;20032;-70
2021/11/12 11:13:18;;;;;;;44.17;30.23;;;;;;;13.65;100.00;101840.84;4925330;29;20118;-70
2021/11/12 11:16:07;;;;;;;42.38;30.98;;;;;;;13.41;100.00;101835.88;4938819;29;20066;-69
2021/11/12 11:18:56;;;;;;;46.33;31.83;;;;;;;13.62;100.00;101834.75;4940307;29;20122;-69
2021/11/12 11:21:42;;;;;;;39.13;28.40;;;;;;;13.70;100.00;101832.88;4939335;29;20027;-70
2021/11/12 11:24:34;;;;;;;38.85;26.75;;;;;;;13.41;100.00;101832.38;4940074;29;20039;-70
2021/11/12 11:27:20;;;;;;;43.03;29.23;;;;;;;13.73;100.00;101825.84;4939786;29;20028;-69
2021/11/12 11:30:06;;;;;;;39.63;28.75;;;;;;;13.35;100.00;101833.28;4940817;29;20051;-69
2021/11/12 11:32:52;;;;;;;40.78;28.15;;;;;;;13.97;100.00;101822.88;4939405;29;20230;-69
2021/11/12 11:35:39;;;;;;;39.10;28.20;;;;;;;13.63;100.00;101825.97;4940765;29;20438;-68
2021/11/12 11:38:30;;;;;;;40.90;26.90;;;;;;;14.05;100.00;101815.75;4939526;29;20028;-69
2021/11/12 11:41:19;;;;;;;42.15;27.88;;;;;;;13.68;100.00;101808.34;4939903;29;20089;-69
2021/11/12 11:44:05;;;;;;;51.10;33.45;;;;;;;14.26;100.00;101802.28;4938931;29;20032;-69
2021/11/12 11:46:53;;;;;;;44.88;29.80;;;;;;;14.37;100.00;101802.09;4939303;29;20038;-69
2021/11/12 11:49:38;;;;;;;46.97;30.13;;;;;;;14.07;100.00;101795.50;4939597;29;20032;-69
2021/11/12 11:52:27;;;;;;;44.95;29.98;;;;;;;14.34;100.00;101792.47;4940629;29;20028;-69
2021/11/12 11:55:36;;;;;;;48.03;29.30;;;;;;;14.24;100.00;101790.00;4939063;29;20359;-69
2021/11/12 11:58:33;;;;;;;45.22;29.77;;;;;;;13.68;100.00;101790.78;4924719;29;20059;-69
2021/11/12 12:01:19;;;;;;;40.80;28.40;;;;;;;14.54;100.00;101785.13;4925559;29;20043;-69
2021/11/12 12:04:08;;;;;;;40.50;28.45;;;;;;;13.95;100.00;101786.91;4939802;29;20020;-69
2021/11/12 12:07:03;;;;;;;45.55;27.95;;;;;;;14.02;100.00;101783.25;4939899;29;20451;-69
2021/11/12 12:10:18;;;;;;;47.85;30.08;;;;;;;13.32;100.00;101783.34;4939765;29;20046;-69
2021/11/12 12:13:04;;;;;;;42.83;28.65;;;;;;;13.53;100.00;101782.19;4938822;29;20063;-70
2021/11/12 12:15:50;;;;;;;40.63;28.30;;;;;;;14.00;100.00;101787.69;4939372;29;20046;-69
2021/11/12 12:18:47;;;;;;;42.47;29.52;;;;;;;13.90;100.00;101788.72;4939802;29;20518;-69
2021/11/12 12:21:53;;;;;;;40.50;28.30;;;;;;;14.11;100.00;101784.00;4938487;29;20024;-69
2021/11/12 13:24:53;;;;;;;55.95;29.95;;;;;;;13.81;100.00;101730.88;4879081;29;20088;-69
2021/11/12 13:27:39;;;;;;;63.47;32.47;;;;;;;13.60;100.00;101739.97;4938544;29;20046;-69
2021/11/12 13:30:27;;;;;;;63.40;32.03;;;;;;;13.61;100.00;101743.47;4937200;29;20137;-70
2021/11/12 13:33:33;;;;;;;66.22;34.35;;;;;;;13.54;100.00;101734.78;4937261;29;20039;-69
2021/11/12 13:36:32;;;;;;;70.55;34.50;;;;;;;13.50;100.00;101737.47;4936760;29;20351;-69
2021/11/12 13:39:19;;;;;;;61.85;33.45;;;;;;;13.39;100.00;101740.25;4936973;29;20032;-70
2021/11/12 13:42:05;;;;;;;57.35;32.30;;;;;;;13.72;100.00;101739.81;4938469;29;20031;-70
2021/11/12 13:44:51;;;;;;;69.22;32.38;;;;;;;13.41;100.00;101742.84;4938410;29;20023;-71
2021/11/12 13:47:37;;;;;;;57.80;31.65;;;;;;;13.33;100.00;101737.69;4938277;29;20434;-71
2021/11/12 13:50:23;;;;;;;57.92;31.95;;;;;;;13.48;100.00;101736.63;4938166;29;20102;-69
2021/11/12 13:53:09;;;;;;;53.67;32.15;;;;;;;13.38;100.00;101741.13;4938540;29;20098;-70
2021/11/12 13:55:55;;;;;;;56.13;30.05;;;;;;;13.55;100.00;101733.03;4924107;29;20032;-70
2021/11/12 13:58:42;;;;;;;51.47;31.45;;;;;;;13.59;100.00;101735.59;4937292;29;20394;-70
2021/11/12 14:01:28;;;;;;;47.80;29.15;;;;;;;12.77;100.00;101741.81;4937374;29;20054;-69
2021/11/12 14:04:22;;;;;;;46.08;28.52;;;;;;;12.48;100.00;101736.84;4924216;29;20046;-69
2021/11/12 14:07:20;;;;;;;44.55;29.73;;;;;;;13.04;100.00;101745.06;4937218;29;20039;-70
2021/11/12 14:10:08;;;;;;;44.03;28.60;;;;;;;12.86;100.00;101734.69;4936186;29;20370;-69
2021/11/12 14:12:58;;;;;;;45.03;28.15;;;;;;;13.01;100.00;101731.94;4936669;29;20036;-69
2021/11/12 14:16:13;;;;;;;51.28;31.33;;;;;;;13.27;100.00;101735.13;4924033;29;20035;-68
2021/11/12 14:21:59;;;;;;;54.42;30.33;;;;;;;13.24;100.00;101734.31;4936845;29;20020;-69
2021/11/12 14:24:53;;;;;;;45.15;28.13;;;;;;;12.94;100.00;101732.00;4937478;29;20062;-70
2021/11/12 14:27:51;;;;;;;41.13;28.80;;;;;;;13.05;100.00;101736.28;4936238;29;20035;-69
2021/11/12 14:31:35;;;;;;;46.80;29.38;;;;;;;13.17;100.00;101744.03;4936296;29;20028;-71
2021/11/12 14:34:11;;;;;;;46.58;28.60;;;;;;;12.99;100.00;101738.13;4933725;29;20047;-70
2021/11/12 14:37:23;;;;;;;45.05;28.50;;;;;;;13.14;100.00;101732.69;4922790;29;20027;-69
2021/11/12 14:40:10;;;;;;;43.35;28.38;;;;;;;13.17;100.00;101730.00;4935892;29;20035;-69
2021/11/12 14:46:41;;;;;;;50.50;32.22;;;;;;;13.04;100.00;101733.66;4936242;29;20114;-70
2021/11/12 14:49:34;;;;;;;56.08;33.13;;;;;;;13.04;100.00;101742.44;4936385;29;20055;-70
2021/11/12 14:52:24;;;;;;;54.80;34.10;;;;;;;13.01;100.00;101734.56;4935513;29;20371;-69
2021/11/12 14:55:11;;;;;;;58.45;33.20;;;;;;;12.99;100.00;101738.97;4937106;29;20439;-69
2021/11/12 14:57:58;;;;;;;55.83;36.55;;;;;;;12.69;100.00;101736.63;4937247;29;20103;-70
2021/11/12 15:00:45;;;;;;;57.35;36.50;;;;;;;12.70;100.00;101741.00;4923779;29;20028;-70
2021/11/12 15:03:31;;;;;;;64.90;37.25;;;;;;;12.47;100.00;101742.13;4922207;29;20046;-70
2021/11/12 15:06:20;;;;;;;57.45;37.55;;;;;;;12.56;100.00;101739.41;4936242;29;20039;-69
2021/11/12 15:11:52;;;;;;;54.05;35.08;;;;;;;12.68;100.00;101745.44;4936304;29;20035;-70
2021/11/12 15:14:52;;;;;;;60.65;35.90;;;;;;;12.72;100.00;101743.63;4937134;29;20343;-70
2021/11/12 15:17:38;;;;;;;55.90;34.88;;;;;;;12.52;100.00;101754.34;4922637;29;20039;-69
2021/11/12 15:20:26;;;;;;;57.00;34.22;;;;;;;12.44;100.00;101747.38;4935396;29;20034;-70
2021/11/12 15:26:29;;;;;;;66.53;38.90;;;;;;;12.10;100.00;101752.03;4909286;29;20408;-69
2021/11/12 15:29:20;;;;;;;68.88;38.90;;;;;;;12.00;100.00;101749.50;4937146;29;20118;-69
2021/11/12 15:32:14;;;;;;;74.70;39.17;;;;;;;11.82;100.00;101752.25;4935579;29;20063;-69
2021/11/12 15:35:06;;;;;;;67.85;41.65;;;;;;;11.93;100.00;101753.06;4937157;29;20123;-69
2021/11/12 15:40:41;;;;;;;130.13;56.45;;;;;;;11.53;100.00;101757.63;4937194;29;20031;-69
2021/11/12 15:43:29;;;;;;;124.03;55.30;;;;;;;11.96;100.00;101761.78;4936625;29;20059;-70
2021/11/12 15:46:22;;;;;;;118.15;55.03;;;;;;;12.13;100.00;101761.69;4935258;29;20028;-69
2021/11/12 15:49:08;;;;;;;144.80;65.20;;;;;;;12.13;100.00;101769.56;4935477;29;20029;-69
2021/11/12 15:52:08;;;;;;;181.77;74.18;;;;;;;12.16;100.00;101767.78;4935166;29;20032;-71
2021/11/12 16:00:58;;;;;;;171.55;84.55;;;;;;;12.05;100.00;101772.22;4940585;29;20370;-69
2021/11/12 16:03:54;;;;;;;181.15;91.50;;;;;;;11.94;100.00;101774.03;4939338;29;20033;-69
2021/11/12 16:06:58;;;;;;;194.90;105.03;;;;;;;11.90;100.00;101779.34;4939121;29;20063;-70
2021/11/12 16:10:04;;;;;;;187.40;103.80;;;;;;;11.79;100.00;101782.03;4924790;29;20110;-69
2021/11/12 16:13:07;;;;;;;164.43;91.20;;;;;;;11.59;100.00;101780.34;4939215;29;20103;-70
2021/11/12 16:19:20;;;;;;;168.50;92.00;;;;;;;11.21;100.00;101785.72;4940535;29;20036;-69
2021/11/12 16:28:02;;;;;;;148.38;82.22;;;;;;;11.02;100.00;101788.41;4938777;29;20042;-70
2021/11/12 16:31:00;;;;;;;127.25;76.28;;;;;;;11.24;100.00;101795.34;4939626;29;20045;-70
2021/11/12 16:33:46;;;;;;;98.47;59.08;;;;;;;10.93;100.00;101797.16;4937953;29;20470;-71
2021/11/12 16:36:33;;;;;;;98.40;58.83;;;;;;;11.07;100.00;101794.50;4926052;29;20040;-70
2021/11/12 16:39:26;;;;;;;100.85;59.95;;;;;;;11.22;100.00;101792.75;4939242;29;20137;-70
2021/11/12 16:54:16;;;;;;;105.38;61.60;;;;;;;10.94;100.00;101798.94;4938624;29;20024;-71
2021/11/12 17:06:42;;;;;;;98.05;58.67;;;;;;;11.04;100.00;101791.88;4937783;29;20019;-70
2021/11/12 17:18:47;;;;;;;115.22;69.03;;;;;;;11.11;100.00;101791.88;4938156;29;20106;-69
2021/11/12 18:04:18;;;;;;;129.82;65.20;;;;;;;9.96;100.00;101792.75;4861173;29;20384;-69
2021/11/12 18:07:20;;;;;;;129.05;69.35;;;;;;;9.55;100.00;101794.38;4937479;29;20063;-68
2021/11/12 21:45:56;;;;;;;151.27;87.38;;;;;;;8.22;100.00;101808.31;4937778;29;20450;-71
2021/11/12 21:48:44;;;;;;;140.48;82.40;;;;;;;7.96;100.00;101803.66;4937784;29;20028;-69
2021/11/12 21:51:39;;;;;;;139.30;81.10;;;;;;;8.23;100.00;101804.81;4936287;29;20039;-69
2021/11/12 21:54:25;;;;;;;148.10;83.35;;;;;;;8.19;100.00;101809.97;4924084;29;20043;-70
2021/11/12 21:57:11;;;;;;;139.02;78.22;;;;;;;8.25;100.00;101810.06;4937061;29;20400;-69
2021/11/12 21:59:56;;;;;;;127.28;74.22;;;;;;;8.12;100.00;101809.03;4938602;29;20090;-70
2021/11/12 22:02:43;;;;;;;120.50;69.55;;;;;;;8.45;100.00;101811.13;4936922;29;20063;-70
2021/11/12 22:05:29;;;;;;;112.95;67.78;;;;;;;8.34;100.00;101807.53;4924527;29;20044;-70
2021/11/12 22:08:16;;;;;;;109.03;65.35;;;;;;;8.28;100.00;101810.09;4936718;29;20070;-69
2021/11/12 22:11:06;;;;;;;118.15;69.88;;;;;;;8.14;100.00;101816.88;4938233;29;20371;-69
2021/11/12 22:13:51;;;;;;;118.72;68.30;;;;;;;8.17;100.00;101816.91;4937335;29;20040;-69
2021/11/12 22:16:37;;;;;;;109.53;66.85;;;;;;;8.15;100.00;101811.69;4937559;29;20028;-69
2021/11/12 22:19:23;;;;;;;108.78;62.78;;;;;;;7.99;100.00;101811.50;4938185;29;20038;-69